SpazioLink.com il tuo mini portale

Terremoti in Italia, con Google Maps

Spaziolink il MiniPortale

Home Sfondi Cerca SuperEnalotto Posizione navi Terremoti Directory Video Forum Giochi Meteo Gifs Software


Lista dei terremoti in Italia in tempo quasi reale dopo l'elaborazione dei valori rilevati dai sensori dislocati nelle zone interessate, comprendenti gli eventi sismici di elevata magnitudo sull'intero globo terrącqueo, per visualizzare la posizione dell'epicentro su Google Maps cliccare sul nome del luogo evidenziato in blu.
Data Ora (gmt) Mag. Zona Lat Long Prof. (km)
22/09/2018 07:45:12 ML 2.6 Isole Eolie (Messina) 38.49 15.18 131.4
21/09/2018 22:24:24 ML 2.3 Costa Siciliana sud-occidentale (Trapani) 37.24 12.67  75.0
20/09/2018 11:38:00 ML 2.3 Costa Siciliana nord-orientale (Messina) 38.27 14.81 118.0
20/09/2018 06:51:29 ML 2.0 5 km N Ussita (MC) 42.99 13.13   9.0
20/09/2018 04:25:49 ML 2.1 3 km SE Montecilfone (CB) 41.88 14.86  15.8
20/09/2018 23:36:57 ML 2.1 Tirreno Meridionale (MARE) 38.47 15.51 134.4
19/09/2018 13:44:05 ML 2.0 2 km E Rocca Pia (AQ) 41.94 14.00  15.5
19/09/2018 09:54:41 ML 2.5 3 km N Modigliana (FC) 44.18 11.78  20.2
19/09/2018 09:03:48 ML 2.0 4 km E Rocca Pia (AQ) 41.94 14.02  14.4
19/09/2018 21:36:42 Md 2.5 5 km E Pozzuoli (NA) 40.83 14.15   2.3
18/09/2018 19:04:52 ML 3.0 Costa Albanese settentrionale (ALBANIA) 41.48 19.48   2.1
18/09/2018 11:58:03 Mwp 6.1 Solomon Is. [Sea] -8.35 157.21 113.3
18/09/2018 07:28:33 ML 2.4 Costa Siciliana nord-orientale (Messina) 38.23 15.21  11.1
18/09/2018 07:27:41 Mwp 6.0 Southwest Indian Ridge [Sea] -37.60 49.79   0.8
18/09/2018 02:27:44 ML 2.0 8 km W Montegallo (AP) 42.83 13.24  12.1
18/09/2018 20:25:31 ML 2.8 Costa Siciliana nord-orientale (Messina) 38.26 15.21  10.7
17/09/2018 17:50:36 ML 2.2 2 km S Preci (PG) 42.86 13.04   9.9
17/09/2018 14:57:45 ML 2.1 7 km E Norcia (PG) 42.80 13.18  10.6
17/09/2018 06:01:18 ML 2.4 3 km N Montefiorino (MO) 44.39 10.62   4.1
17/09/2018 06:01:06 ML 2.4 4 km N Montefiorino (MO) 44.39 10.62   9.8
17/09/2018 00:24:07 mb 5.0 Crete, Greece [Sea: Greece] 34.29 26.47  10.0
17/09/2018 21:11:49 Mwp 6.3 South of Fiji Islands [Sea] -25.40 178.37 584.4
16/09/2018 19:39:21 ML 2.1 Costa Siciliana nord-orientale (Messina) 38.31 15.19 113.4
16/09/2018 18:32:13 ML 2.1 4 km NE Castelsantangelo sul Nera (MC) 42.93 13.18  14.6
15/09/2018 08:05:31 Mwp 6.0 Ryukyu Islands, Japan [Sea: Japan] 26.53 129.54  14.8
15/09/2018 08:01:16 ML 2.2 5 km N Finale Emilia (MO) 44.88 11.29   6.3
15/09/2018 00:33:37 ML 2.0 8 km W Monte Cavallo (MC) 43.01 12.90  10.1
15/09/2018 21:40:13 ML 2.1 4 km S Montecilfone (CB) 41.87 14.84  11.0
14/09/2018 18:31:42 ML 2.1 Costa Marchigiana Anconetana (Ancona) 43.75 13.26   9.7
14/09/2018 03:48:28 ML 2.4 6 km E Santo Stefano in Aspromonte (RC) 38.19 15.85  11.9
14/09/2018 02:18:27 ML 2.0 5 km N Spoleto (PG) 42.78 12.73   7.6
- traduzioni - freegames - frasi - subnet mask - partners - ipcheck - spazioinizio - pagerank - wi-fi - barzellette - favicon - speedtest - programmone - screenmates -
Locations of visitors to this page